< < Back
Terminal Aerodrome Forecast


Current Version              Previous Versions:   1  2  3  4  5  6  7  8  9  

Terminal Aerodrome Forecast

535
FTUS42 KGSP 301120
TAFHKY
TAF
KHKY 301120Z 3012/3112 36004KT P6SM FEW250
     FM301500 35003KT P6SM SKC=

Latest METAR

565
SAUS70 KWBC 310700 RRF
MTRHKY
METAR KHKY 310653Z AUTO 36003KT 10SM BKN065 06/04 A2999 RMK AO2 SLP141
T00560039 $


USA.gov is the U.S. government's official web portal to all federal, state and local government web resources and services.